createdAt,value
2023-03-28T00:01:02.069Z,1.18
2023-03-28T00:03:29.919Z,1.28
2023-03-28T00:06:02.910Z,1.24
2023-03-28T00:08:30.881Z,1.29
2023-03-28T00:11:08.043Z,1.36
2023-03-28T00:13:35.535Z,1.26
2023-03-28T00:16:10.352Z,1.19
2023-03-28T00:18:39.514Z,1.17
2023-03-28T00:21:23.906Z,1.23
2023-03-28T00:23:53.496Z,1.20
2023-03-28T00:26:22.402Z,1.19
2023-03-28T00:28:49.138Z,1.23
2023-03-28T00:31:15.985Z,1.07
2023-03-28T00:33:43.989Z,1.07
2023-03-28T00:36:10.735Z,1.03
2023-03-28T00:38:38.842Z,1.09
2023-03-28T00:41:06.042Z,1.19
2023-03-28T00:43:44.359Z,1.23
2023-03-28T00:46:18.790Z,1.11
2023-03-28T00:48:51.775Z,1.16
2023-03-28T00:51:22.991Z,1.14
2023-03-28T00:53:52.741Z,1.13
2023-03-28T00:56:23.528Z,1.19
2023-03-28T00:58:51.626Z,1.06
2023-03-28T01:01:20.248Z,1.07
2023-03-28T01:03:56.548Z,1.01
2023-03-28T01:06:25.456Z,1.05
2023-03-28T01:08:52.831Z,1.03
2023-03-28T01:11:19.989Z,1.10
2023-03-28T01:13:51.714Z,1.12
2023-03-28T01:16:21.183Z,1.06
2023-03-28T01:18:52.491Z,1.09
2023-03-28T01:21:36.760Z,1.15
2023-03-28T01:24:11.741Z,1.16
2023-03-28T01:27:08.624Z,1.25
2023-03-28T01:30:01.453Z,1.28
2023-03-28T01:32:56.964Z,1.25
2023-03-28T01:36:01.427Z,1.27
2023-03-28T01:38:43.951Z,1.38
2023-03-28T01:41:24.016Z,1.34
2023-03-28T01:44:06.405Z,1.35
2023-03-28T01:46:39.412Z,1.39
2023-03-28T01:49:13.996Z,1.39
2023-03-28T01:52:12.428Z,1.43
2023-03-28T01:54:58.929Z,1.40
2023-03-28T01:57:41.552Z,1.46
2023-03-28T02:00:12.856Z,1.45
2023-03-28T02:03:03.636Z,1.39
2023-03-28T02:05:33.220Z,1.50
2023-03-28T02:08:02.955Z,1.45
2023-03-28T02:10:32.876Z,1.48
2023-03-28T02:13:03.756Z,1.57
2023-03-28T02:15:32.721Z,1.42
2023-03-28T02:18:04.598Z,1.34
2023-03-28T02:20:35.564Z,1.36
2023-03-28T02:23:08.500Z,1.35
2023-03-28T02:25:35.263Z,1.34
2023-03-28T02:28:05.691Z,1.22
2023-03-28T02:30:32.869Z,1.26
2023-03-28T02:33:01.617Z,1.42
2023-03-28T02:35:40.187Z,1.44
2023-03-28T02:38:21.215Z,1.43
2023-03-28T02:41:14.011Z,1.40
2023-03-28T02:43:53.529Z,1.41
2023-03-28T02:46:32.046Z,1.48
2023-03-28T02:49:01.625Z,1.52
2023-03-28T02:51:42.825Z,1.53
2023-03-28T02:54:25.404Z,1.45
2023-03-28T02:57:10.596Z,1.43
2023-03-28T02:59:44.435Z,1.42
2023-03-28T03:02:16.896Z,1.33
2023-03-28T03:04:44.604Z,1.23
2023-03-28T03:07:11.349Z,1.21
2023-03-28T03:09:37.989Z,1.23
2023-03-28T03:12:04.893Z,1.26
2023-03-28T03:14:31.578Z,1.35
2023-03-28T03:16:58.319Z,1.36
2023-03-28T03:19:24.992Z,1.42
2023-03-28T03:21:51.852Z,1.52
2023-03-28T03:24:18.524Z,1.48
2023-03-28T03:26:45.552Z,1.57
2023-03-28T03:29:12.296Z,1.60
2023-03-28T03:31:38.975Z,1.60
2023-03-28T03:34:06.105Z,1.68
2023-03-28T03:36:32.961Z,1.59
2023-03-28T03:39:00.136Z,1.69
2023-03-28T03:41:26.857Z,1.64
2023-03-28T03:43:53.555Z,1.66
2023-03-28T03:46:20.381Z,1.65
2023-03-28T03:48:50.025Z,1.61
2023-03-28T03:51:17.763Z,1.61
2023-03-28T03:53:45.147Z,1.64
2023-03-28T03:56:11.923Z,1.60
2023-03-28T03:58:38.774Z,1.64
2023-03-28T04:01:05.706Z,1.71
2023-03-28T04:03:34.094Z,1.67
2023-03-28T04:06:02.382Z,1.68
2023-03-28T04:08:29.275Z,1.73
2023-03-28T04:10:56.000Z,1.68
2023-03-28T04:13:22.664Z,1.72
2023-03-28T04:15:49.360Z,1.75
2023-03-28T04:18:17.878Z,1.75
2023-03-28T04:20:47.258Z,1.74
2023-03-28T04:23:13.939Z,1.62
2023-03-28T04:25:43.495Z,1.65
2023-03-28T04:28:10.521Z,1.65
2023-03-28T04:30:38.455Z,1.73
2023-03-28T04:33:05.219Z,1.75
2023-03-28T04:35:35.697Z,1.66
2023-03-28T04:38:03.025Z,1.63
2023-03-28T04:40:29.889Z,1.59
2023-03-28T04:42:56.496Z,1.64
2023-03-28T04:45:23.797Z,1.73
2023-03-28T04:47:50.715Z,1.64
2023-03-28T04:50:17.622Z,1.60
2023-03-28T04:52:44.460Z,1.49
2023-03-28T04:55:11.125Z,1.50
2023-03-28T04:57:38.444Z,1.56
2023-03-28T05:00:17.371Z,1.58
2023-03-28T05:02:44.258Z,1.56
2023-03-28T05:05:11.096Z,1.58
2023-03-28T05:07:37.898Z,1.57
2023-03-28T05:10:06.279Z,1.48
2023-03-28T05:12:32.952Z,1.44
2023-03-28T05:14:59.580Z,1.32
2023-03-28T05:17:26.566Z,1.32
2023-03-28T05:19:53.372Z,1.32
2023-03-28T05:22:20.111Z,1.27
2023-03-28T05:24:46.984Z,1.34
2023-03-28T05:27:13.804Z,1.43
2023-03-28T05:29:40.470Z,1.39
2023-03-28T05:32:07.331Z,1.34
2023-03-28T05:34:34.590Z,1.44
2023-03-28T05:37:02.029Z,1.61
2023-03-28T05:39:29.222Z,1.74
2023-03-28T05:41:55.808Z,1.81
2023-03-28T05:44:22.633Z,1.83
2023-03-28T05:46:49.240Z,1.95
2023-03-28T05:49:15.810Z,1.99
2023-03-28T05:51:42.520Z,1.96
2023-03-28T05:54:09.260Z,2.05
2023-03-28T05:56:36.632Z,2.12
2023-03-28T05:59:03.660Z,2.05
2023-03-28T06:01:31.572Z,2.10
2023-03-28T06:03:58.716Z,2.06
2023-03-28T06:06:25.548Z,2.13
2023-03-28T06:08:52.381Z,2.11
2023-03-28T06:11:19.237Z,2.12
2023-03-28T06:13:46.107Z,2.02
2023-03-28T06:16:12.905Z,2.00
2023-03-28T06:18:39.586Z,2.06
2023-03-28T06:21:06.475Z,2.12
2023-03-28T06:23:33.145Z,1.96
2023-03-28T06:25:59.943Z,2.06
2023-03-28T06:28:26.794Z,2.12
2023-03-28T06:30:53.728Z,2.19
2023-03-28T06:33:20.733Z,2.21
2023-03-28T06:35:47.633Z,2.40
2023-03-28T06:38:14.354Z,2.17
2023-03-28T06:40:41.470Z,2.31
2023-03-28T06:43:08.201Z,2.58
2023-03-28T06:45:35.052Z,3.09
2023-03-28T06:48:01.746Z,3.54
2023-03-28T06:50:28.619Z,4.07
2023-03-28T06:52:55.210Z,3.95
2023-03-28T06:55:23.092Z,3.98
2023-03-28T06:57:49.808Z,3.49
2023-03-28T07:00:16.896Z,3.41
2023-03-28T07:02:43.749Z,3.31
2023-03-28T07:05:11.763Z,3.00
2023-03-28T07:07:38.372Z,2.87
2023-03-28T07:10:05.831Z,2.89
2023-03-28T07:12:32.443Z,2.81
2023-03-28T07:14:59.175Z,2.85
2023-03-28T07:17:26.032Z,3.33
2023-03-28T07:19:54.511Z,3.75
2023-03-28T07:22:21.271Z,4.28
2023-03-28T07:24:47.992Z,4.82
2023-03-28T07:27:16.647Z,4.61
2023-03-28T07:29:44.118Z,4.49
2023-03-28T07:32:11.409Z,3.98
2023-03-28T07:34:38.143Z,3.57
2023-03-28T07:37:05.572Z,3.48
2023-03-28T07:39:32.683Z,3.55
2023-03-28T07:42:01.463Z,3.42
2023-03-28T07:44:28.070Z,3.25
2023-03-28T07:46:55.057Z,3.09
2023-03-28T07:49:21.795Z,3.16
2023-03-28T07:51:48.606Z,3.35
2023-03-28T07:54:17.959Z,3.35
2023-03-28T07:56:48.616Z,3.48
2023-03-28T07:59:15.433Z,3.81
2023-03-28T08:01:43.531Z,3.79
2023-03-28T08:04:11.870Z,3.61
2023-03-28T08:06:39.759Z,3.38
2023-03-28T08:09:13.599Z,3.29
2023-03-28T08:11:41.937Z,3.26
2023-03-28T08:14:12.239Z,3.26
2023-03-28T08:16:40.042Z,3.32
2023-03-28T08:19:11.425Z,3.49
2023-03-28T08:21:39.299Z,3.40
2023-03-28T08:24:07.910Z,3.38
2023-03-28T08:26:35.086Z,3.31
2023-03-28T08:29:02.494Z,3.52
2023-03-28T08:31:29.720Z,3.92
2023-03-28T08:33:57.470Z,4.28
2023-03-28T08:36:27.438Z,4.73
2023-03-28T08:38:57.506Z,4.94
2023-03-28T08:41:52.476Z,5.19
2023-03-28T08:44:27.835Z,5.05
2023-03-28T08:47:00.272Z,5.35
2023-03-28T08:49:27.530Z,5.82
2023-03-28T08:52:01.000Z,5.70
2023-03-28T08:54:34.468Z,5.63
2023-03-28T08:57:04.442Z,5.69
2023-03-28T09:00:15.743Z,5.56
2023-03-28T09:02:44.282Z,5.16
2023-03-28T09:05:25.542Z,4.87
2023-03-28T09:08:01.162Z,4.62
2023-03-28T09:10:39.888Z,4.60
2023-03-28T09:13:24.851Z,4.65
2023-03-28T09:16:15.355Z,4.68
2023-03-28T09:18:54.992Z,4.62
2023-03-28T09:21:46.336Z,5.81
2023-03-28T09:24:37.854Z,5.62
2023-03-28T09:27:31.356Z,6.03
2023-03-28T09:30:08.384Z,7.34
2023-03-28T09:32:41.235Z,7.91
2023-03-28T09:35:20.202Z,8.50
2023-03-28T09:37:55.932Z,9.31
2023-03-28T09:40:26.083Z,9.54
2023-03-28T09:43:30.284Z,9.30
2023-03-28T09:46:04.775Z,7.64
2023-03-28T09:48:36.990Z,6.74
2023-03-28T09:51:06.353Z,6.10
2023-03-28T09:53:37.069Z,5.83
2023-03-28T09:56:32.315Z,5.71
2023-03-28T09:59:02.602Z,6.01
2023-03-28T10:01:50.965Z,5.94
2023-03-28T10:04:32.847Z,5.82
2023-03-28T10:07:11.417Z,5.89
2023-03-28T10:09:55.948Z,6.00
2023-03-28T10:12:32.987Z,6.09
2023-03-28T10:15:00.109Z,5.94
2023-03-28T10:17:30.305Z,6.13
2023-03-28T10:20:02.109Z,7.17
2023-03-28T10:22:33.626Z,7.17
2023-03-28T10:25:03.565Z,6.74
2023-03-28T10:27:33.764Z,6.90
2023-03-28T10:30:13.955Z,6.78
2023-03-28T10:32:41.601Z,6.46
2023-03-28T10:35:21.156Z,6.81
2023-03-28T10:37:48.897Z,6.96
2023-03-28T10:40:18.349Z,6.57
2023-03-28T10:42:46.537Z,6.00
2023-03-28T10:45:37.065Z,6.02
2023-03-28T10:48:22.719Z,5.99
2023-03-28T10:50:51.634Z,6.13
2023-03-28T10:53:41.826Z,6.44
2023-03-28T10:56:38.725Z,7.47
2023-03-28T10:59:14.021Z,7.53
2023-03-28T11:01:49.772Z,7.70
2023-03-28T11:04:25.466Z,8.41
2023-03-28T11:07:24.076Z,9.46
2023-03-28T11:10:08.815Z,8.54
2023-03-28T11:13:16.983Z,7.98
2023-03-28T11:15:58.164Z,7.59
2023-03-28T11:18:49.776Z,7.00
2023-03-28T11:21:57.925Z,7.08
2023-03-28T11:24:37.197Z,7.05
2023-03-28T11:27:19.042Z,7.44
2023-03-28T11:29:56.195Z,7.24
2023-03-28T11:32:43.818Z,7.28
2023-03-28T11:35:13.663Z,7.55
2023-03-28T11:37:44.520Z,7.66
2023-03-28T11:40:28.879Z,7.83
2023-03-28T11:42:57.628Z,7.71
2023-03-28T11:45:41.993Z,7.45
2023-03-28T11:48:32.262Z,7.53
2023-03-28T11:51:17.303Z,7.59
2023-03-28T11:53:51.761Z,7.46
2023-03-28T11:56:28.447Z,7.42
2023-03-28T11:59:11.489Z,7.61
2023-03-28T12:01:45.038Z,7.71
2023-03-28T12:04:19.855Z,8.05
2023-03-28T12:07:22.494Z,8.02
2023-03-28T12:10:06.273Z,7.91
2023-03-28T12:12:38.318Z,7.85
2023-03-28T12:15:25.204Z,7.62
2023-03-28T12:17:59.387Z,6.83
2023-03-28T12:20:46.583Z,6.93
2023-03-28T12:23:22.722Z,6.86
2023-03-28T12:26:23.568Z,6.82
2023-03-28T12:28:54.151Z,6.85
2023-03-28T12:31:39.589Z,7.73
2023-03-28T12:34:38.524Z,8.06
2023-03-28T12:37:22.644Z,7.74
2023-03-28T12:40:09.230Z,7.78
2023-03-28T12:42:36.867Z,7.39
2023-03-28T12:45:14.748Z,7.61
2023-03-28T12:47:47.265Z,7.54
2023-03-28T12:50:27.917Z,7.73
2023-03-28T12:52:56.714Z,7.43
2023-03-28T12:55:26.782Z,7.46
2023-03-28T12:58:11.361Z,7.41
2023-03-28T13:01:16.350Z,7.40
2023-03-28T13:04:01.956Z,7.73
2023-03-28T13:06:42.757Z,7.54
2023-03-28T13:09:28.149Z,7.83
2023-03-28T13:12:22.943Z,7.71
2023-03-28T13:15:03.309Z,8.37
2023-03-28T13:17:33.075Z,8.50
2023-03-28T13:20:14.852Z,8.32
2023-03-28T13:22:58.587Z,8.59
2023-03-28T13:25:34.339Z,8.67
2023-03-28T13:28:12.682Z,8.42
2023-03-28T13:30:44.160Z,8.38
2023-03-28T13:33:28.572Z,8.59
2023-03-28T13:35:58.501Z,8.28
2023-03-28T13:38:28.077Z,8.09
2023-03-28T13:40:59.738Z,7.97
2023-03-28T13:43:41.875Z,8.35
2023-03-28T13:46:22.390Z,8.50
2023-03-28T13:49:06.893Z,8.16
2023-03-28T13:51:53.710Z,8.00
2023-03-28T13:54:21.587Z,8.08
2023-03-28T13:56:49.950Z,7.99
2023-03-28T13:59:19.050Z,8.33
2023-03-28T14:01:50.596Z,8.48
2023-03-28T14:04:21.376Z,8.66
2023-03-28T14:06:49.435Z,8.80
2023-03-28T14:09:19.905Z,8.54
2023-03-28T14:11:48.487Z,8.23
2023-03-28T14:14:24.269Z,8.23
2023-03-28T14:16:52.439Z,7.90
2023-03-28T14:19:22.704Z,7.72
2023-03-28T14:21:49.501Z,7.64
2023-03-28T14:24:23.923Z,7.54
2023-03-28T14:26:51.853Z,7.69
2023-03-28T14:29:19.862Z,7.73
2023-03-28T14:31:48.692Z,7.51
2023-03-28T14:34:26.179Z,7.47
2023-03-28T14:36:58.742Z,7.72
2023-03-28T14:39:27.978Z,7.78
2023-03-28T14:41:56.734Z,8.07
2023-03-28T14:44:24.490Z,8.31
2023-03-28T14:46:52.640Z,8.51
2023-03-28T14:49:25.401Z,8.64
2023-03-28T14:52:00.709Z,8.13
2023-03-28T14:54:39.009Z,8.36
2023-03-28T14:57:06.672Z,8.50
2023-03-28T14:59:45.791Z,8.55
2023-03-28T15:02:28.514Z,8.63
2023-03-28T15:05:09.747Z,8.44
2023-03-28T15:07:37.761Z,8.43
2023-03-28T15:10:09.150Z,8.02
2023-03-28T15:12:46.055Z,8.31
2023-03-28T15:15:22.193Z,8.36
2023-03-28T15:17:51.667Z,8.10
2023-03-28T15:20:24.114Z,8.15
2023-03-28T15:22:56.483Z,8.11
2023-03-28T15:25:25.055Z,8.18
2023-03-28T15:27:57.006Z,8.18
2023-03-28T15:30:24.752Z,8.25
2023-03-28T15:32:53.406Z,8.16
2023-03-28T15:35:31.722Z,7.91
2023-03-28T15:38:18.916Z,7.99
2023-03-28T15:40:48.591Z,7.98
2023-03-28T15:43:56.942Z,7.82
2023-03-28T15:46:33.381Z,7.68
2023-03-28T15:49:02.930Z,7.80
2023-03-28T15:51:31.149Z,7.81
2023-03-28T15:54:01.132Z,7.73
2023-03-28T15:56:31.717Z,7.72
2023-03-28T15:59:04.252Z,7.66
2023-03-28T16:01:33.014Z,7.65
2023-03-28T16:04:23.632Z,7.73
2023-03-28T16:06:55.591Z,7.61
2023-03-28T16:09:24.710Z,7.63
2023-03-28T16:12:00.753Z,7.62
2023-03-28T16:14:27.724Z,7.50
2023-03-28T16:16:55.642Z,7.48
2023-03-28T16:19:28.058Z,7.47
2023-03-28T16:21:54.796Z,7.33
2023-03-28T16:24:21.758Z,7.35
2023-03-28T16:26:48.766Z,7.36
2023-03-28T16:29:15.906Z,7.31
2023-03-28T16:31:43.482Z,7.28
2023-03-28T16:34:10.502Z,7.17
2023-03-28T16:36:38.236Z,7.13
2023-03-28T16:39:06.358Z,7.09
2023-03-28T16:41:32.829Z,7.04
2023-03-28T16:43:59.544Z,7.11
2023-03-28T16:46:26.425Z,7.01
2023-03-28T16:48:53.028Z,6.96
2023-03-28T16:51:19.619Z,6.89
2023-03-28T16:53:46.469Z,6.80
2023-03-28T16:56:15.132Z,6.76
2023-03-28T16:58:42.885Z,6.74
2023-03-28T17:01:19.276Z,6.72
2023-03-28T17:03:47.512Z,6.67
2023-03-28T17:06:16.436Z,6.64
2023-03-28T17:08:44.525Z,6.53
2023-03-28T17:11:12.696Z,6.50
2023-03-28T17:13:40.509Z,6.47
2023-03-28T17:16:08.708Z,6.43
2023-03-28T17:18:36.077Z,6.42
2023-03-28T17:21:11.980Z,6.32
2023-03-28T17:23:40.340Z,6.25
2023-03-28T17:26:08.814Z,6.15
2023-03-28T17:28:39.228Z,5.99
2023-03-28T17:31:12.969Z,5.90
2023-03-28T17:33:40.414Z,5.81
2023-03-28T17:36:27.505Z,5.76
2023-03-28T17:38:56.849Z,5.67
2023-03-28T17:41:25.032Z,5.49
2023-03-28T17:43:53.471Z,5.39
2023-03-28T17:46:21.631Z,5.21
2023-03-28T17:48:49.150Z,4.93
2023-03-28T17:51:16.136Z,4.78
2023-03-28T17:53:44.729Z,4.69
2023-03-28T17:56:11.801Z,4.61
2023-03-28T17:58:38.670Z,4.45
2023-03-28T18:01:09.918Z,4.38
2023-03-28T18:03:37.524Z,4.24
2023-03-28T18:06:04.636Z,4.24
2023-03-28T18:08:31.641Z,4.22
2023-03-28T18:11:02.826Z,4.16
2023-03-28T18:13:29.458Z,4.04
2023-03-28T18:15:56.096Z,4.05
2023-03-28T18:18:22.820Z,4.05
2023-03-28T18:20:51.113Z,4.10
2023-03-28T18:23:17.803Z,4.21
2023-03-28T18:25:44.597Z,4.30
2023-03-28T18:28:11.240Z,4.29
2023-03-28T18:30:39.429Z,4.35
2023-03-28T18:33:06.461Z,4.40
2023-03-28T18:35:33.254Z,4.49
2023-03-28T18:37:59.920Z,4.48
2023-03-28T18:40:26.548Z,4.43
2023-03-28T18:42:53.490Z,4.35
2023-03-28T18:45:20.162Z,4.18
2023-03-28T18:47:46.921Z,4.20
2023-03-28T18:50:15.227Z,4.19
2023-03-28T18:52:43.141Z,4.24
2023-03-28T18:55:12.179Z,4.29
2023-03-28T18:57:38.830Z,4.30
2023-03-28T19:00:17.717Z,4.30
2023-03-28T19:02:45.970Z,4.32
2023-03-28T19:05:13.917Z,4.45
2023-03-28T19:07:40.953Z,4.48
2023-03-28T19:10:08.472Z,4.53
2023-03-28T19:12:36.509Z,4.59
2023-03-28T19:15:04.756Z,4.47
2023-03-28T19:17:34.875Z,4.56
2023-03-28T19:20:07.446Z,4.58
2023-03-28T19:22:35.200Z,4.57
2023-03-28T19:25:02.082Z,4.61
2023-03-28T19:27:28.722Z,4.63
2023-03-28T19:29:55.580Z,4.67
2023-03-28T19:32:22.302Z,4.64
2023-03-28T19:34:49.191Z,4.72
2023-03-28T19:37:15.756Z,4.73
2023-03-28T19:39:42.539Z,4.68
2023-03-28T19:42:09.303Z,4.72
2023-03-28T19:44:35.988Z,4.77
2023-03-28T19:47:03.061Z,4.71
2023-03-28T19:49:29.672Z,4.77
2023-03-28T19:51:56.620Z,4.68
2023-03-28T19:54:23.427Z,4.75
2023-03-28T19:56:50.103Z,4.73
2023-03-28T19:59:16.835Z,4.73
2023-03-28T20:01:43.456Z,4.76
2023-03-28T20:04:10.905Z,4.75
2023-03-28T20:06:37.658Z,4.81
2023-03-28T20:09:04.319Z,4.70
2023-03-28T20:11:31.069Z,4.75
2023-03-28T20:13:57.814Z,4.79
2023-03-28T20:16:24.467Z,4.81
2023-03-28T20:18:51.033Z,4.75
2023-03-28T20:21:17.777Z,4.64
2023-03-28T20:23:44.451Z,4.64
2023-03-28T20:26:14.395Z,4.65
2023-03-28T20:28:41.918Z,4.71
2023-03-28T20:31:12.862Z,4.86
2023-03-28T20:33:40.890Z,4.71
2023-03-28T20:36:08.292Z,4.66
2023-03-28T20:38:34.968Z,4.64
2023-03-28T20:41:01.930Z,4.67
2023-03-28T20:43:29.730Z,4.65
2023-03-28T20:45:58.188Z,4.52
2023-03-28T20:48:34.587Z,4.49
2023-03-28T20:51:17.656Z,4.47
2023-03-28T20:53:52.038Z,4.54
2023-03-28T20:56:20.054Z,4.41
2023-03-28T20:58:46.977Z,4.39
2023-03-28T21:01:17.644Z,4.30
2023-03-28T21:03:51.883Z,4.28
2023-03-28T21:06:21.529Z,4.29
2023-03-28T21:08:50.308Z,4.28
2023-03-28T21:11:22.662Z,4.19
2023-03-28T21:13:50.514Z,4.20
2023-03-28T21:16:17.591Z,4.16
2023-03-28T21:18:45.119Z,4.19
2023-03-28T21:21:13.375Z,4.12
2023-03-28T21:23:40.788Z,4.05
2023-03-28T21:26:09.567Z,3.99
2023-03-28T21:28:36.824Z,3.95
2023-03-28T21:31:08.002Z,3.95
2023-03-28T21:33:36.668Z,4.03
2023-03-28T21:36:06.739Z,3.91
2023-03-28T21:38:33.983Z,4.01
2023-03-28T21:41:00.842Z,3.95
2023-03-28T21:43:27.511Z,3.95
2023-03-28T21:45:54.462Z,3.88
2023-03-28T21:48:21.378Z,3.85
2023-03-28T21:50:59.139Z,3.97
2023-03-28T21:53:29.377Z,3.83
2023-03-28T21:55:56.928Z,3.80
2023-03-28T21:58:24.108Z,3.80
2023-03-28T22:00:51.069Z,3.81
2023-03-28T22:03:18.153Z,3.87
2023-03-28T22:05:45.229Z,3.95
2023-03-28T22:08:13.624Z,3.90
2023-03-28T22:10:48.586Z,3.94
2023-03-28T22:13:15.583Z,3.85
2023-03-28T22:15:42.441Z,3.88
2023-03-28T22:18:09.584Z,3.83
2023-03-28T22:20:38.445Z,3.87
2023-03-28T22:23:06.325Z,3.86
2023-03-28T22:25:36.118Z,3.91
2023-03-28T22:28:04.966Z,3.92
2023-03-28T22:30:33.250Z,3.88
2023-03-28T22:33:00.109Z,3.83
2023-03-28T22:35:26.810Z,3.81
2023-03-28T22:37:53.469Z,3.71
2023-03-28T22:40:20.257Z,3.77
2023-03-28T22:42:47.066Z,3.75
2023-03-28T22:45:14.245Z,3.86
2023-03-28T22:47:40.982Z,3.75
2023-03-28T22:50:12.983Z,3.78
2023-03-28T22:52:42.131Z,4.05
2023-03-28T22:55:13.602Z,4.14
2023-03-28T22:57:44.197Z,4.20
2023-03-28T23:00:13.297Z,4.38
2023-03-28T23:02:40.466Z,4.47
2023-03-28T23:05:08.229Z,4.43
2023-03-28T23:07:36.670Z,4.50
2023-03-28T23:10:07.812Z,4.52
2023-03-28T23:12:34.575Z,4.55
2023-03-28T23:15:01.175Z,4.81
2023-03-28T23:17:28.529Z,4.89
2023-03-28T23:19:55.604Z,5.04
2023-03-28T23:22:22.457Z,5.01
2023-03-28T23:24:51.679Z,4.98
2023-03-28T23:27:19.601Z,4.96
2023-03-28T23:29:46.267Z,5.00
2023-03-28T23:32:12.947Z,5.01
2023-03-28T23:34:40.460Z,4.95
2023-03-28T23:37:07.227Z,4.88
2023-03-28T23:39:33.931Z,5.05
2023-03-28T23:42:00.650Z,5.28
2023-03-28T23:44:28.047Z,5.27
2023-03-28T23:46:56.444Z,5.33
2023-03-28T23:49:23.970Z,5.40
2023-03-28T23:51:50.941Z,5.48
2023-03-28T23:54:18.718Z,5.45
2023-03-28T23:56:46.151Z,5.64
2023-03-28T23:59:12.990Z,5.67
